Time;durP1;ratioP1;P1;durP2;ratioP2;P2;SDS_P1;SDS_P2;PMS_P1;PMS_P2;Temp;Humidity;BMP_temperature;BMP_pressure;BME280_temperature;BME280_humidity;BME280_pressure;Samples;Min_cycle;Max_cycle;Signal;HPM_P1;HPM_P2
2021/03/15 00:01:11;;;;;;;1.90;0.65;;;17.70;61.80;;;;;;10487541;28;20033;-55
2021/03/15 00:06:11;;;;;;;1.55;0.65;;;17.70;61.70;;;;;;10470677;28;20037;-54
2021/03/15 00:11:12;;;;;;;2.10;0.95;;;17.70;61.70;;;;;;10457184;28;20061;-55
2021/03/15 00:16:13;;;;;;;2.40;0.68;;;17.70;61.60;;;;;;10475793;28;20044;-55
2021/03/15 00:21:14;;;;;;;2.40;0.80;;;17.70;61.60;;;;;;10499212;28;20072;-55
2021/03/15 00:26:14;;;;;;;1.77;0.68;;;17.70;61.60;;;;;;10469903;28;20117;-53
2021/03/15 00:31:15;;;;;;;3.15;0.98;;;17.70;61.50;;;;;;10457439;28;20411;-55
2021/03/15 00:36:16;;;;;;;1.48;0.80;;;17.70;61.40;;;;;;10480107;28;20433;-54
2021/03/15 00:41:17;;;;;;;1.65;0.63;;;17.70;61.50;;;;;;10498511;28;20460;-55
2021/03/15 00:46:17;;;;;;;1.05;0.68;;;17.70;61.40;;;;;;10469093;28;20041;-55
2021/03/15 00:51:18;;;;;;;1.02;0.60;;;17.70;61.40;;;;;;10457024;28;20112;-54
2021/03/15 00:56:19;;;;;;;1.00;0.80;;;17.70;61.40;;;;;;10483905;28;20171;-54
2021/03/15 01:01:20;;;;;;;1.40;0.60;;;17.70;61.40;;;;;;10497913;28;20425;-55
2021/03/15 01:06:21;;;;;;;3.50;0.55;;;17.70;61.30;;;;;;10465941;28;20033;-56
2021/03/15 01:11:22;;;;;;;1.25;0.73;;;17.70;61.30;;;;;;10456188;28;20029;-55
2021/03/15 01:16:23;;;;;;;2.20;0.63;;;17.70;61.30;;;;;;10475180;28;20048;-55
2021/03/15 01:21:24;;;;;;;2.05;0.68;;;17.70;61.20;;;;;;10512906;28;20469;-55
2021/03/15 01:26:26;;;;;;;0.95;0.40;;;17.70;61.20;;;;;;10466184;28;20037;-54
2021/03/15 01:31:27;;;;;;;1.23;0.40;;;17.70;61.20;;;;;;10455885;28;20033;-55
2021/03/15 01:36:28;;;;;;;0.93;0.47;;;17.70;61.20;;;;;;10479968;28;20037;-52
2021/03/15 01:41:28;;;;;;;2.03;0.57;;;17.70;61.20;;;;;;10496996;28;20111;-55
2021/03/15 01:46:29;;;;;;;1.55;0.73;;;17.70;61.10;;;;;;10463761;28;20082;-55
2021/03/15 01:51:30;;;;;;;1.48;0.40;;;17.70;61.10;;;;;;10476752;28;20453;-55
2021/03/15 01:56:31;;;;;;;0.95;0.30;;;17.80;61.10;;;;;;10474578;28;20485;-54
2021/03/15 02:01:32;;;;;;;2.20;0.52;;;17.80;61.00;;;;;;10503750;28;20447;-55
2021/03/15 02:06:33;;;;;;;1.60;0.50;;;17.80;60.90;;;;;;10472089;28;20118;-54
2021/03/15 02:12:14;;;;;;;2.22;0.77;;;17.80;60.80;;;;;;10463263;28;20032;-55
2021/03/15 02:17:59;;;;;;;1.02;0.60;;;17.80;60.90;;;;;;10489216;28;20048;-54
2021/03/15 02:23:19;;;;;;;1.05;0.40;;;17.80;60.80;;;;;;10476471;28;20052;-55
2021/03/15 02:28:52;;;;;;;1.63;0.70;;;17.80;61.50;;;;;;10490091;28;20036;-54
2021/03/15 02:34:38;;;;;;;0.70;0.47;;;17.70;60.80;;;;;;10489680;28;20032;-55
2021/03/15 02:39:44;;;;;;;0.57;0.45;;;17.70;60.80;;;;;;10497955;28;20365;-55
2021/03/15 02:44:49;;;;;;;1.02;0.77;;;17.80;60.90;;;;;;10486389;28;20401;-55
2021/03/15 02:50:04;;;;;;;1.80;0.65;;;17.70;60.80;;;;;;10472853;28;20036;-55
2021/03/15 02:55:07;;;;;;;0.40;0.30;;;17.80;60.80;;;;;;10479684;28;20098;-55
2021/03/15 03:00:09;;;;;;;1.15;0.88;;;17.80;60.80;;;;;;10500182;28;20405;-55
2021/03/15 03:05:12;;;;;;;1.08;0.35;;;17.70;60.70;;;;;;10483151;28;20033;-55
2021/03/15 03:10:16;;;;;;;0.63;0.40;;;17.80;60.70;;;;;;10460856;28;20082;-55
2021/03/15 03:15:21;;;;;;;1.27;0.43;;;17.80;60.70;;;;;;10467664;28;20459;-54
2021/03/15 03:20:25;;;;;;;1.75;0.30;;;17.70;60.60;;;;;;10460728;28;20037;-54
2021/03/15 03:25:26;;;;;;;1.90;0.50;;;17.80;60.70;;;;;;10474457;28;20028;-55
2021/03/15 03:30:38;;;;;;;0.90;0.40;;;17.80;60.70;;;;;;10490859;28;20028;-55
2021/03/15 03:35:40;;;;;;;3.78;0.73;;;17.80;60.70;;;;;;10475071;28;20058;-54
2021/03/15 03:40:41;;;;;;;0.50;0.20;;;17.80;60.60;;;;;;10464526;28;20127;-55
2021/03/15 03:45:42;;;;;;;0.30;0.20;;;17.80;60.60;;;;;;10486004;28;20108;-54
2021/03/15 03:50:43;;;;;;;0.95;0.52;;;17.80;60.60;;;;;;10485880;28;20392;-53
2021/03/15 03:56:03;;;;;;;0.90;0.40;;;17.80;60.60;;;;;;10496131;28;20546;-55
2021/03/15 04:01:07;;;;;;;1.58;0.60;;;17.80;60.60;;;;;;10493723;28;20060;-53
2021/03/15 04:06:12;;;;;;;0.35;0.20;;;17.80;60.60;;;;;;10457563;28;20029;-55
2021/03/15 04:11:14;;;;;;;0.85;0.40;;;17.80;60.50;;;;;;10461891;28;20039;-55
2021/03/15 04:16:15;;;;;;;1.60;0.50;;;17.80;60.50;;;;;;10498168;28;20052;-54
2021/03/15 04:21:26;;;;;;;1.00;0.30;;;17.80;60.50;;;;;;10495605;28;20093;-55
2021/03/15 04:26:28;;;;;;;0.68;0.40;;;17.80;60.40;;;;;;10465656;28;20044;-54
2021/03/15 04:31:29;;;;;;;0.77;0.20;;;17.80;60.40;;;;;;10494519;28;20116;-55
2021/03/15 04:36:30;;;;;;;0.73;0.25;;;17.80;60.40;;;;;;10469118;28;20040;-55
2021/03/15 04:41:32;;;;;;;1.25;0.40;;;17.80;60.40;;;;;;10461192;28;20029;-54
2021/03/15 04:46:33;;;;;;;0.65;0.30;;;17.80;60.40;;;;;;10493221;28;20437;-55
2021/03/15 04:51:37;;;;;;;1.35;0.65;;;17.80;60.40;;;;;;10484425;28;20025;-55
2021/03/15 04:56:38;;;;;;;0.50;0.28;;;17.80;60.40;;;;;;10497840;28;20028;-54
2021/03/15 05:01:42;;;;;;;1.00;0.30;;;17.80;60.30;;;;;;10490820;28;20028;-55
2021/03/15 05:06:44;;;;;;;0.60;0.25;;;17.80;60.30;;;;;;10456099;28;20420;-55
2021/03/15 05:11:45;;;;;;;1.00;0.30;;;17.80;60.30;;;;;;10461338;28;20431;-55
2021/03/15 05:16:46;;;;;;;0.45;0.30;;;17.70;60.30;;;;;;10495649;28;20048;-56
2021/03/15 05:21:48;;;;;;;1.60;0.32;;;17.80;60.30;;;;;;10487553;28;20049;-55
2021/03/15 05:26:50;;;;;;;0.70;0.40;;;17.70;60.20;;;;;;10464134;28;20050;-54
2021/03/15 05:31:52;;;;;;;1.33;0.20;;;17.80;60.30;;;;;;10487505;28;20106;-55
2021/03/15 05:36:56;;;;;;;1.10;0.30;;;17.80;60.20;;;;;;10454291;28;20025;-53
2021/03/15 05:42:21;;;;;;;0.28;0.20;;;17.80;60.10;;;;;;10456322;28;20037;-55
2021/03/15 05:48:23;;;;;;;1.27;0.40;;;17.80;60.10;;;;;;10447745;28;20557;-52
2021/03/15 05:53:57;;;;;;;2.00;0.43;;;17.80;60.10;;;;;;10454687;28;20056;-54
2021/03/15 05:59:38;;;;;;;1.13;0.30;;;17.80;60.20;;;;;;10496058;28;20131;-53
2021/03/15 06:05:18;;;;;;;0.70;0.20;;;17.80;60.20;;;;;;10472674;28;20716;-55
2021/03/15 06:10:36;;;;;;;1.38;0.40;;;17.80;60.20;;;;;;10455212;28;20036;-53
2021/03/15 06:15:39;;;;;;;2.05;0.50;;;17.80;60.20;;;;;;10458759;28;20055;-54
2021/03/15 06:20:46;;;;;;;0.73;0.30;;;17.70;60.60;;;;;;10454454;28;20041;-54
2021/03/15 06:25:49;;;;;;;3.38;0.50;;;17.80;60.90;;;;;;10453844;28;20044;-56
2021/03/15 06:30:53;;;;;;;3.45;0.55;;;17.70;61.50;;;;;;10451250;28;20029;-56
2021/03/15 06:36:03;;;;;;;5.25;0.40;;;17.80;62.50;;;;;;10458742;28;20491;-56
2021/03/15 06:41:07;;;;;;;;;;;17.90;62.30;;;;;;10462369;28;20033;-56
2021/03/15 06:46:09;;;;;;;2.90;0.40;;;17.90;62.50;;;;;;10484269;28;19912;-56
2021/03/15 06:51:10;;;;;;;7.88;1.02;;;17.90;62.60;;;;;;10491224;28;20029;-56
2021/03/15 06:56:16;;;;;;;8.40;1.30;;;17.90;63.10;;;;;;10470450;28;20370;-56
2021/03/15 07:01:23;;;;;;;7.55;1.33;;;17.80;62.00;;;;;;10474704;28;20068;-56
2021/03/15 07:06:42;;;;;;;7.50;1.48;;;17.80;62.00;;;;;;10472283;28;20045;-56
2021/03/15 07:11:44;;;;;;;14.25;1.10;;;17.80;62.10;;;;;;10472689;28;20033;-55
2021/03/15 07:17:02;;;;;;;6.05;1.05;;;17.80;62.10;;;;;;10440581;28;20566;-55
2021/03/15 07:22:21;;;;;;;10.52;1.40;;;17.70;61.70;;;;;;10459576;28;20068;-55
2021/03/15 07:27:30;;;;;;;7.35;1.25;;;17.70;61.60;;;;;;10480685;28;20028;-55
2021/03/15 07:32:38;;;;;;;5.72;1.25;;;17.70;61.50;;;;;;10471637;28;20048;-55
2021/03/15 07:37:42;;;;;;;5.68;0.82;;;17.70;61.30;;;;;;10453315;28;20028;-54
2021/03/15 07:43:07;;;;;;;4.78;0.75;;;17.70;61.20;;;;;;10451386;28;20065;-55
2021/03/15 07:48:18;;;;;;;5.13;0.82;;;17.70;61.10;;;;;;10451104;28;20065;-54
2021/03/15 07:53:37;;;;;;;3.55;0.68;;;17.70;61.10;;;;;;10441059;28;20040;-55
2021/03/15 07:58:40;;;;;;;3.43;0.77;;;17.70;61.00;;;;;;10442500;28;20029;-53
2021/03/15 08:03:42;;;;;;;5.28;1.15;;;17.70;61.00;;;;;;10455121;28;20630;-55
2021/03/15 08:08:42;;;;;;;7.20;0.93;;;17.70;61.20;;;;;;10465327;28;20366;-56
2021/03/15 08:13:53;;;;;;;9.57;1.27;;;17.60;61.80;;;;;;10464839;28;20044;-56
2021/03/15 08:18:55;;;;;;;6.65;0.80;;;17.70;62.20;;;;;;10468210;28;20040;-55
2021/03/15 08:23:58;;;;;;;7.55;1.08;;;17.60;61.90;;;;;;10479201;28;20041;-53
2021/03/15 08:29:01;;;;;;;9.52;1.55;;;17.60;61.80;;;;;;10474120;28;20041;-56
2021/03/15 08:34:03;;;;;;;10.45;1.80;;;17.60;61.50;;;;;;10449206;28;20404;-56
2021/03/15 08:39:26;;;;;;;7.13;1.05;;;17.50;61.80;;;;;;10454795;28;20032;-56
2021/03/15 08:44:43;;;;;;;5.13;1.33;;;17.60;61.90;;;;;;10474005;28;20049;-56
2021/03/15 08:49:43;;;;;;;4.72;1.27;;;17.60;62.00;;;;;;10452470;28;20036;-56
2021/03/15 08:54:46;;;;;;;4.95;1.23;;;17.60;62.60;;;;;;10462222;28;20488;-56
2021/03/15 08:59:47;;;;;;;9.43;1.63;;;17.60;62.70;;;;;;10470199;28;20025;-56
2021/03/15 09:04:48;;;;;;;6.68;1.60;;;17.60;62.60;;;;;;10467659;28;20405;-56
2021/03/15 09:09:49;;;;;;;6.90;1.70;;;17.60;62.40;;;;;;10462072;28;20032;-57
2021/03/15 09:14:56;;;;;;;6.88;1.05;;;17.50;62.60;;;;;;10467712;28;20439;-60
2021/03/15 09:19:57;;;;;;;11.18;1.52;;;17.50;62.50;;;;;;10473799;28;20373;-58
2021/03/15 09:25:02;;;;;;;12.70;1.42;;;17.50;62.70;;;;;;10475454;28;20108;-58
2021/03/15 09:30:22;;;;;;;6.88;1.45;;;17.40;63.70;;;;;;10468459;28;20024;-58
2021/03/15 09:35:40;;;;;;;5.95;1.30;;;17.40;63.40;;;;;;10473484;28;20025;-58
2021/03/15 09:40:47;;;;;;;9.10;1.30;;;17.40;63.50;;;;;;10471787;28;20028;-57
2021/03/15 09:45:58;;;;;;;9.60;1.40;;;17.50;63.30;;;;;;10471049;28;20692;-58
2021/03/15 09:51:03;;;;;;;13.10;1.30;;;17.40;63.60;;;;;;10473219;28;20032;-58
2021/03/15 09:56:10;;;;;;;8.15;1.55;;;17.40;64.10;;;;;;10479409;28;20384;-58
2021/03/15 10:01:21;;;;;;;9.27;1.60;;;17.40;63.80;;;;;;10470556;28;20055;-59
2021/03/15 10:06:25;;;;;;;10.43;1.48;;;17.40;63.70;;;;;;10457539;28;20086;-58
2021/03/15 10:11:28;;;;;;;7.45;1.63;;;17.40;63.90;;;;;;10461471;28;20036;-58
2021/03/15 10:16:29;;;;;;;17.10;2.33;;;17.40;64.10;;;;;;10466730;28;20516;-56
2021/03/15 10:21:31;;;;;;;6.80;1.70;;;17.40;64.10;;;;;;10467610;28;20047;-57
2021/03/15 10:26:32;;;;;;;10.82;1.90;;;17.40;64.20;;;;;;10462318;28;20041;-57
2021/03/15 10:31:37;;;;;;;8.50;1.65;;;17.30;64.10;;;;;;10473921;28;20104;-57
2021/03/15 10:36:38;;;;;;;8.70;1.25;;;17.30;64.00;;;;;;10482177;28;20136;-57
2021/03/15 10:41:40;;;;;;;3.50;0.80;;;17.20;63.80;;;;;;10467753;28;20115;-57
2021/03/15 10:46:54;;;;;;;7.32;1.42;;;17.20;64.00;;;;;;10461813;28;20025;-57
2021/03/15 10:51:54;;;;;;;5.13;1.45;;;17.20;63.70;;;;;;10461381;28;20037;-57
2021/03/15 10:57:20;;;;;;;5.30;1.27;;;17.20;63.40;;;;;;10461066;28;20099;-57
2021/03/15 11:02:26;;;;;;;6.10;1.92;;;17.20;63.20;;;;;;10461084;28;20040;-56
2021/03/15 11:07:30;;;;;;;3.55;1.27;;;17.10;63.10;;;;;;10461297;28;20025;-57
2021/03/15 11:12:39;;;;;;;6.60;1.55;;;17.10;63.80;;;;;;10461141;28;20374;-56
2021/03/15 11:17:42;;;;;;;3.73;1.30;;;17.10;63.00;;;;;;10466653;28;20519;-57
2021/03/15 11:22:51;;;;;;;4.75;0.90;;;17.10;63.80;;;;;;10473229;28;20025;-57
2021/03/15 11:27:52;;;;;;;6.47;1.27;;;17.10;63.50;;;;;;10491699;28;20025;-57
2021/03/15 11:33:07;;;;;;;3.63;0.88;;;17.10;63.00;;;;;;10480740;28;20133;-57
2021/03/15 11:38:08;;;;;;;9.57;1.20;;;17.10;63.50;;;;;;10485593;28;20028;-57
2021/03/15 11:43:13;;;;;;;5.60;1.13;;;17.10;63.50;;;;;;10500170;28;20025;-57
2021/03/15 11:48:14;;;;;;;27.00;1.58;;;17.10;63.30;;;;;;10501207;28;20047;-56
2021/03/15 11:53:14;;;;;;;13.07;1.60;;;17.10;63.20;;;;;;10500885;28;20120;-57
2021/03/15 11:58:15;;;;;;;7.18;1.77;;;17.10;63.40;;;;;;10500628;28;20074;-58
2021/03/15 12:03:16;;;;;;;10.90;1.63;;;17.20;64.00;;;;;;10500142;28;20032;-58
2021/03/15 12:08:18;;;;;;;7.25;1.38;;;17.20;64.30;;;;;;10499667;28;20093;-58
2021/03/15 12:13:19;;;;;;;5.70;1.65;;;17.20;64.40;;;;;;10497694;28;20049;-57
2021/03/15 12:18:20;;;;;;;6.25;1.48;;;17.20;64.40;;;;;;10479265;28;20030;-57
2021/03/15 12:23:21;;;;;;;4.75;1.13;;;17.20;64.40;;;;;;10477670;28;20419;-57
2021/03/15 12:28:22;;;;;;;12.18;3.40;;;17.20;64.10;;;;;;10477472;28;20067;-57
2021/03/15 12:33:22;;;;;;;12.18;2.80;;;17.30;64.50;;;;;;10477461;28;20087;-57
2021/03/15 12:38:23;;;;;;;21.88;3.10;;;17.30;64.50;;;;;;10478912;28;20123;-57
2021/03/15 12:43:25;;;;;;;8.48;2.70;;;17.30;64.90;;;;;;10480393;28;20100;-58
2021/03/15 12:48:25;;;;;;;9.70;2.13;;;17.20;64.20;;;;;;10482700;28;20031;-58
2021/03/15 12:53:26;;;;;;;4.47;1.92;;;17.20;64.20;;;;;;10476641;28;20028;-57
2021/03/15 12:58:27;;;;;;;10.13;2.78;;;17.20;64.10;;;;;;10491685;28;20103;-58
2021/03/15 13:03:27;;;;;;;8.52;2.13;;;17.10;64.60;;;;;;10497578;28;20063;-58
2021/03/15 13:08:28;;;;;;;16.30;2.20;;;17.20;64.10;;;;;;10497558;28;20020;-57
2021/03/15 13:13:29;;;;;;;5.47;1.77;;;17.20;63.70;;;;;;10461346;28;20397;-58
2021/03/15 13:18:29;;;;;;;10.88;3.13;;;17.20;63.60;;;;;;10474661;28;20527;-57
2021/03/15 13:23:30;;;;;;;15.00;2.88;;;17.20;64.60;;;;;;10477099;28;20021;-57
2021/03/15 13:28:31;;;;;;;15.45;2.65;;;17.20;65.20;;;;;;10474915;28;20487;-57
2021/03/15 13:33:32;;;;;;;13.13;2.70;;;17.20;65.60;;;;;;10477338;28;20112;-57
2021/03/15 13:38:32;;;;;;;9.57;2.30;;;17.30;65.70;;;;;;10485392;28;20115;-57
2021/03/15 13:43:33;;;;;;;11.05;1.95;;;17.30;65.50;;;;;;10495436;28;20029;-57
2021/03/15 13:48:34;;;;;;;12.82;2.13;;;17.30;65.00;;;;;;10479038;28;20060;-57
2021/03/15 13:53:35;;;;;;;11.57;2.55;;;17.20;64.70;;;;;;10473296;28;20025;-58
2021/03/15 13:58:35;;;;;;;15.50;2.78;;;17.30;65.40;;;;;;10475220;28;20117;-58
2021/03/15 14:03:36;;;;;;;8.35;1.80;;;17.30;65.40;;;;;;10474099;28;20123;-58
2021/03/15 14:08:37;;;;;;;12.05;2.40;;;17.30;65.60;;;;;;10474902;28;20056;-57
2021/03/15 14:13:37;;;;;;;19.33;2.72;;;17.30;64.90;;;;;;10461710;28;20073;-56
2021/03/15 14:18:38;;;;;;;9.18;2.70;;;17.30;65.20;;;;;;10471895;28;20070;-57
2021/03/15 14:23:39;;;;;;;11.32;2.20;;;17.30;65.10;;;;;;10473300;28;20105;-58
2021/03/15 14:28:39;;;;;;;14.77;2.17;;;17.20;65.10;;;;;;10474615;28;20411;-57
2021/03/15 14:33:40;;;;;;;13.25;2.60;;;17.20;65.40;;;;;;10474597;28;20025;-57
2021/03/15 14:38:41;;;;;;;19.23;3.78;;;17.10;65.80;;;;;;10473622;28;20025;-57
2021/03/15 14:43:42;;;;;;;16.23;2.60;;;17.20;65.90;;;;;;10454717;28;20386;-56
2021/03/15 14:48:42;;;;;;;13.52;2.35;;;17.20;65.50;;;;;;10454348;28;20099;-57
2021/03/15 14:53:43;;;;;;;31.23;5.85;;;17.20;65.40;;;;;;10454408;28;20037;-57
2021/03/15 14:58:44;;;;;;;21.50;4.65;;;17.10;65.60;;;;;;10461831;28;20446;-58
2021/03/15 15:03:44;;;;;;;22.38;3.22;;;17.10;65.40;;;;;;10471817;28;20374;-58
2021/03/15 15:08:45;;;;;;;33.92;5.85;;;17.10;64.80;;;;;;10459657;28;20033;-56
2021/03/15 15:13:46;;;;;;;24.63;3.83;;;17.10;64.50;;;;;;10463196;28;20127;-56
2021/03/15 15:18:46;;;;;;;12.70;3.03;;;17.10;65.30;;;;;;10463043;28;20029;-57
2021/03/15 15:23:47;;;;;;;25.25;4.10;;;17.20;64.90;;;;;;10466263;28;20107;-56
2021/03/15 15:28:48;;;;;;;26.70;4.63;;;17.20;65.70;;;;;;10471076;28;20033;-57
2021/03/15 15:33:48;;;;;;;34.85;6.03;;;17.20;65.70;;;;;;10459965;28;20029;-57
2021/03/15 15:38:49;;;;;;;29.15;4.57;;;17.20;66.20;;;;;;10471802;28;20060;-57
2021/03/15 15:43:50;;;;;;;16.77;3.05;;;17.20;66.10;;;;;;10459912;28;20048;-57
2021/03/15 15:48:50;;;;;;;20.02;3.58;;;17.20;65.50;;;;;;10459410;28;20033;-57
2021/03/15 15:53:51;;;;;;;24.88;3.60;;;17.20;65.00;;;;;;10458647;28;20025;-58
2021/03/15 15:58:52;;;;;;;15.80;2.53;;;17.20;64.60;;;;;;10458594;28;20025;-57
2021/03/15 16:03:52;;;;;;;13.60;3.33;;;17.20;64.40;;;;;;10458240;28;20055;-57
2021/03/15 16:08:53;;;;;;;21.00;4.30;;;17.20;64.30;;;;;;10455818;28;20075;-57
2021/03/15 16:13:54;;;;;;;16.08;2.95;;;17.20;64.20;;;;;;10470828;28;20099;-56
2021/03/15 16:18:55;;;;;;;15.20;2.47;;;17.20;63.90;;;;;;10481746;28;20079;-57
2021/03/15 16:23:56;;;;;;;13.07;2.78;;;17.30;63.80;;;;;;10471896;28;20428;-58
2021/03/15 16:28:57;;;;;;;8.45;1.98;;;17.30;63.60;;;;;;10457993;28;20049;-58
2021/03/15 16:33:58;;;;;;;11.57;2.33;;;17.30;63.30;;;;;;10459662;28;20057;-57
2021/03/15 16:38:59;;;;;;;10.27;2.30;;;17.30;63.20;;;;;;10482384;28;20048;-56
2021/03/15 16:44:00;;;;;;;9.70;2.15;;;17.30;63.00;;;;;;10476967;28;20535;-57
2021/03/15 16:49:00;;;;;;;10.77;2.20;;;17.40;63.00;;;;;;10486249;28;20087;-57
2021/03/15 16:54:01;;;;;;;14.77;3.10;;;17.30;62.80;;;;;;10473321;28;20555;-56
2021/03/15 16:59:02;;;;;;;10.93;2.22;;;17.40;63.10;;;;;;10453804;28;20397;-56
2021/03/15 17:04:03;;;;;;;12.68;2.55;;;17.40;62.50;;;;;;10451039;28;20377;-55
2021/03/15 17:09:04;;;;;;;26.40;8.80;;;17.40;62.10;;;;;;10477270;28;20029;-55
2021/03/15 17:14:05;;;;;;;48.53;21.05;;;17.40;61.80;;;;;;10452841;28;20085;-54
2021/03/15 17:19:06;;;;;;;27.80;12.55;;;17.40;63.80;;;;;;10452865;28;20049;-55
2021/03/15 17:24:07;;;;;;;23.98;8.77;;;17.50;63.90;;;;;;10455293;28;20041;-55
2021/03/15 17:29:08;;;;;;;19.42;8.82;;;17.50;68.60;;;;;;10467465;28;20536;-57
2021/03/15 17:34:09;;;;;;;22.52;7.43;;;17.60;66.40;;;;;;10455883;28;20032;-56
2021/03/15 17:39:10;;;;;;;21.60;7.05;;;17.70;66.00;;;;;;10483331;28;20037;-55
2021/03/15 17:44:11;;;;;;;17.73;6.32;;;17.70;66.10;;;;;;10491923;28;20119;-56
2021/03/15 17:49:11;;;;;;;20.30;6.47;;;17.70;66.00;;;;;;10469998;28;20469;-55
2021/03/15 17:54:13;;;;;;;17.23;5.80;;;17.70;65.90;;;;;;10460723;28;20056;-56
2021/03/15 17:59:13;;;;;;;16.67;6.00;;;17.70;65.40;;;;;;10464634;28;20099;-55
2021/03/15 18:04:14;;;;;;;20.75;5.80;;;17.70;64.60;;;;;;10477686;28;20158;-55
2021/03/15 18:09:15;;;;;;;14.38;5.38;;;17.70;64.60;;;;;;10455347;28;20107;-55
2021/03/15 18:14:16;;;;;;;17.17;5.95;;;17.60;65.10;;;;;;10493767;28;20053;-55
2021/03/15 18:19:17;;;;;;;13.02;4.45;;;17.50;64.70;;;;;;10486297;28;20040;-56
2021/03/15 18:24:18;;;;;;;12.65;4.72;;;17.50;64.60;;;;;;10436759;28;20087;-55
2021/03/15 18:29:18;;;;;;;15.13;4.95;;;17.40;64.40;;;;;;10469036;28;20039;-57
2021/03/15 18:34:19;;;;;;;14.13;4.47;;;17.40;64.50;;;;;;10471811;28;20040;-57
2021/03/15 18:39:20;;;;;;;18.75;5.10;;;17.40;64.10;;;;;;10481079;28;20021;-56
2021/03/15 18:44:20;;;;;;;21.30;4.82;;;17.40;64.10;;;;;;10478887;28;20052;-55
2021/03/15 18:49:21;;;;;;;12.05;4.55;;;17.40;64.00;;;;;;10475926;28;20059;-56
2021/03/15 18:54:23;;;;;;;20.05;4.20;;;17.40;64.00;;;;;;10460490;28;20378;-56
2021/03/15 18:59:24;;;;;;;11.27;3.95;;;17.40;63.90;;;;;;10462266;28;20032;-56
2021/03/15 19:04:25;;;;;;;12.80;3.40;;;17.50;64.10;;;;;;10474744;28;20027;-56
2021/03/15 19:09:26;;;;;;;11.57;3.90;;;17.50;64.30;;;;;;10478278;28;20056;-56
2021/03/15 19:14:26;;;;;;;9.13;3.53;;;17.50;64.50;;;;;;10462853;28;20515;-57
2021/03/15 19:19:28;;;;;;;8.40;3.63;;;17.50;64.80;;;;;;10457726;28;20485;-55
2021/03/15 19:24:29;;;;;;;8.75;3.55;;;17.50;64.10;;;;;;10455883;28;20466;-55
2021/03/15 19:29:29;;;;;;;16.42;4.38;;;17.50;64.30;;;;;;10458384;28;20036;-55
2021/03/15 19:34:30;;;;;;;12.90;4.50;;;17.60;64.20;;;;;;10450808;28;20021;-55
2021/03/15 19:39:31;;;;;;;6.32;3.05;;;17.60;64.10;;;;;;10457152;28;20036;-56
2021/03/15 19:44:32;;;;;;;10.68;4.32;;;17.60;64.10;;;;;;10456229;28;20339;-55
2021/03/15 19:49:33;;;;;;;12.73;4.10;;;17.60;64.40;;;;;;10458080;28;20029;-53
2021/03/15 19:54:35;;;;;;;14.93;3.85;;;17.50;64.80;;;;;;10457908;28;20025;-55
2021/03/15 19:59:36;;;;;;;12.23;3.70;;;17.50;64.70;;;;;;10457778;28;20488;-54
2021/03/15 20:04:38;;;;;;;10.77;3.65;;;17.50;64.50;;;;;;10473779;28;20028;-56
2021/03/15 20:09:39;;;;;;;10.25;4.30;;;17.50;64.40;;;;;;10476913;28;20028;-56
2021/03/15 20:14:40;;;;;;;7.18;2.83;;;17.50;64.50;;;;;;10476599;28;20048;-56
2021/03/15 20:19:41;;;;;;;9.88;2.90;;;17.50;64.50;;;;;;10473192;28;20029;-56
2021/03/15 20:24:41;;;;;;;8.35;2.67;;;17.50;64.30;;;;;;10472130;28;20495;-55
2021/03/15 20:29:42;;;;;;;7.90;3.70;;;17.50;64.30;;;;;;10469068;28;20028;-55
2021/03/15 20:34:43;;;;;;;6.65;2.85;;;17.60;64.00;;;;;;10465672;28;20025;-55
2021/03/15 20:39:45;;;;;;;10.40;2.92;;;17.60;63.90;;;;;;10477375;28;20041;-55
2021/03/15 20:44:46;;;;;;;6.63;2.40;;;17.60;63.80;;;;;;10491239;28;20089;-55
2021/03/15 20:49:46;;;;;;;8.68;2.80;;;17.60;63.70;;;;;;10467426;28;20442;-55
2021/03/15 20:54:47;;;;;;;6.28;2.97;;;17.60;63.60;;;;;;10455678;28;20045;-56
2021/03/15 20:59:48;;;;;;;7.00;2.88;;;17.60;63.50;;;;;;10482793;28;20040;-53
2021/03/15 21:04:48;;;;;;;6.30;2.60;;;17.60;63.30;;;;;;10501115;28;20025;-54
2021/03/15 21:09:49;;;;;;;6.13;2.20;;;17.60;63.30;;;;;;10466648;28;20090;-55
2021/03/15 21:14:50;;;;;;;6.22;2.17;;;17.60;63.20;;;;;;10461097;28;20079;-54
2021/03/15 21:19:51;;;;;;;4.53;1.90;;;17.60;63.20;;;;;;10465226;28;20477;-54
2021/03/15 21:24:51;;;;;;;8.43;2.58;;;17.60;63.10;;;;;;10455859;28;20029;-55
2021/03/15 21:29:52;;;;;;;7.45;2.00;;;17.60;62.90;;;;;;10462448;28;20100;-54
2021/03/15 21:34:53;;;;;;;6.63;2.22;;;17.60;62.90;;;;;;10455991;28;20036;-54
2021/03/15 21:39:54;;;;;;;6.07;2.53;;;17.60;62.90;;;;;;10486540;28;20133;-55
2021/03/15 21:44:54;;;;;;;4.82;2.40;;;17.60;62.80;;;;;;10477863;28;20117;-55
2021/03/15 21:49:55;;;;;;;6.45;2.15;;;17.60;62.70;;;;;;10467945;28;20041;-55
2021/03/15 21:54:56;;;;;;;5.43;2.03;;;17.60;62.60;;;;;;10497163;28;20440;-54
2021/03/15 21:59:56;;;;;;;6.72;2.40;;;17.60;62.50;;;;;;10491280;28;20028;-55
2021/03/15 22:04:57;;;;;;;7.00;1.50;;;17.60;63.10;;;;;;10487712;28;20109;-55
2021/03/15 22:09:58;;;;;;;4.50;1.67;;;17.60;63.10;;;;;;10493972;28;20060;-53
2021/03/15 22:14:58;;;;;;;4.70;1.83;;;17.60;62.40;;;;;;10504464;28;20568;-54
2021/03/15 22:20:01;;;;;;;6.85;2.33;;;17.60;62.30;;;;;;10479513;28;20075;-55
2021/03/15 22:25:05;;;;;;;4.40;1.88;;;17.60;62.40;;;;;;10462839;28;20493;-56
2021/03/15 22:30:08;;;;;;;4.43;1.95;;;17.60;62.20;;;;;;10462204;28;20052;-55
2021/03/15 22:35:09;;;;;;;5.93;1.55;;;17.60;62.20;;;;;;10461450;28;20540;-55
2021/03/15 22:40:11;;;;;;;3.70;1.45;;;17.60;62.20;;;;;;10486783;28;20064;-55
2021/03/15 22:45:12;;;;;;;2.25;1.05;;;17.60;62.10;;;;;;10475294;28;20036;-54
2021/03/15 22:50:13;;;;;;;3.83;1.33;;;17.60;62.10;;;;;;10464920;28;20040;-55
2021/03/15 22:55:14;;;;;;;4.28;1.30;;;17.60;62.10;;;;;;10503104;28;20024;-55
2021/03/15 23:00:17;;;;;;;3.25;1.10;;;17.60;61.90;;;;;;10470918;28;20068;-53
2021/03/15 23:05:22;;;;;;;4.00;1.45;;;17.70;61.90;;;;;;10494276;28;20020;-54
2021/03/15 23:10:25;;;;;;;3.33;1.40;;;17.70;61.80;;;;;;10493377;28;20044;-54
2021/03/15 23:15:30;;;;;;;3.65;1.52;;;17.70;61.70;;;;;;10483696;28;20449;-55
2021/03/15 23:20:30;;;;;;;1.98;1.10;;;17.70;61.70;;;;;;10502155;28;20045;-55
2021/03/15 23:25:33;;;;;;;2.70;1.17;;;17.70;61.60;;;;;;10469696;28;20133;-55
2021/03/15 23:30:42;;;;;;;4.50;1.30;;;17.70;61.60;;;;;;10473413;28;20044;-55
2021/03/15 23:35:43;;;;;;;3.17;0.90;;;17.70;61.60;;;;;;10490030;28;20028;-55
2021/03/15 23:40:44;;;;;;;2.95;1.30;;;17.70;61.60;;;;;;10461549;28;20655;-55
2021/03/15 23:45:45;;;;;;;3.65;1.00;;;17.70;61.50;;;;;;10479069;28;20035;-55
2021/03/15 23:50:46;;;;;;;3.50;1.00;;;17.70;61.50;;;;;;10495160;28;20385;-55
2021/03/15 23:55:48;;;;;;;2.92;0.90;;;17.70;61.40;;;;;;10474982;28;20068;-55
